Time;durP1;ratioP1;P1;durP2;ratioP2;P2;SDS_P1;SDS_P2;PMS_P1;PMS_P2;Temp;Humidity;BMP_temperature;BMP_pressure;BME280_temperature;BME280_humidity;BME280_pressure;Samples;Min_cycle;Max_cycle;Signal;HPM_P1;HPM_P2
2022/05/07 00:04:53;;;;;;;3.00;1.33;;;17.10;38.40;;;;;;21002714;28;20084;-66
2022/05/07 00:14:55;;;;;;;4.15;1.70;;;16.90;39.10;;;;;;21002043;28;20049;-65
2022/05/07 00:24:56;;;;;;;1.77;1.33;;;16.70;39.60;;;;;;21000711;28;20080;-65
2022/05/07 00:34:58;;;;;;;2.70;1.80;;;16.70;40.00;;;;;;21000883;28;20505;-66
2022/05/07 00:45:01;;;;;;;2.90;1.60;;;16.50;40.60;;;;;;20999362;28;20055;-67
2022/05/07 00:55:03;;;;;;;3.75;1.60;;;16.40;41.30;;;;;;20998688;28;20506;-66
2022/05/07 01:05:06;;;;;;;3.45;1.40;;;16.40;41.50;;;;;;20998064;28;20390;-67
2022/05/07 01:15:07;;;;;;;3.35;1.83;;;16.10;42.50;;;;;;20997166;28;20501;-67
2022/05/07 01:25:10;;;;;;;3.38;1.60;;;16.00;42.90;;;;;;20996672;28;20165;-67
2022/05/07 01:35:13;;;;;;;3.90;2.00;;;15.90;43.40;;;;;;20996647;28;20102;-66
2022/05/07 01:45:17;;;;;;;4.93;1.80;;;15.80;44.30;;;;;;20994464;28;20060;-67
2022/05/07 01:55:21;;;;;;;6.73;2.17;;;15.60;45.20;;;;;;20977574;28;20052;-66
2022/05/07 02:05:28;;;;;;;3.35;2.10;;;15.60;45.70;;;;;;20994637;28;20317;-66
2022/05/07 02:15:44;;;;;;;4.80;1.88;;;15.60;46.20;;;;;;20994669;28;20386;-66
2022/05/07 02:25:51;;;;;;;3.00;2.03;;;15.50;46.50;;;;;;20994660;28;20060;-66
2022/05/07 02:35:55;;;;;;;3.55;2.08;;;15.30;47.10;;;;;;20976560;28;20524;-66
2022/05/07 02:45:57;;;;;;;3.72;2.15;;;15.30;47.50;;;;;;20993122;28;20058;-66
2022/05/07 02:55:59;;;;;;;6.07;2.38;;;15.10;48.20;;;;;;21006302;28;20045;-67
2022/05/07 03:06:02;;;;;;;3.67;2.13;;;15.00;48.60;;;;;;21007122;28;20048;-67
2022/05/07 03:16:04;;;;;;;3.70;2.10;;;15.00;48.60;;;;;;21006757;28;20080;-68
2022/05/07 03:26:07;;;;;;;3.70;2.30;;;14.80;49.00;;;;;;21006394;28;20059;-66
2022/05/07 03:36:11;;;;;;;4.75;2.28;;;14.80;49.20;;;;;;21005320;28;20048;-66
2022/05/07 03:46:12;;;;;;;4.22;2.10;;;14.70;49.40;;;;;;21004161;28;20075;-66
2022/05/07 03:56:14;;;;;;;5.18;2.10;;;14.70;49.60;;;;;;21004110;28;20077;-66
2022/05/07 04:06:16;;;;;;;4.15;2.10;;;14.70;49.50;;;;;;21002089;28;20064;-67
2022/05/07 04:16:18;;;;;;;3.90;2.20;;;14.60;49.90;;;;;;21001865;28;20054;-66
2022/05/07 04:26:20;;;;;;;7.85;3.13;;;14.50;50.20;;;;;;21001646;28;20485;-66
2022/05/07 04:36:22;;;;;;;3.45;2.40;;;14.50;50.30;;;;;;21000455;28;20132;-66
2022/05/07 04:46:24;;;;;;;4.13;2.40;;;14.40;50.60;;;;;;20999222;28;20044;-66
2022/05/07 04:56:27;;;;;;;5.68;2.65;;;14.40;50.60;;;;;;20980739;28;20106;-66
2022/05/07 05:06:29;;;;;;;3.80;2.03;;;14.50;50.60;;;;;;20998075;28;20045;-65
2022/05/07 05:16:31;;;;;;;4.78;2.65;;;14.40;51.10;;;;;;20999285;28;20139;-66
2022/05/07 05:26:33;;;;;;;4.93;2.30;;;14.30;51.00;;;;;;20978711;28;20052;-66
2022/05/07 05:36:35;;;;;;;4.97;2.92;;;14.30;51.00;;;;;;20996584;28;20048;-66
2022/05/07 05:46:37;;;;;;;3.88;2.92;;;14.30;50.70;;;;;;20995372;28;20535;-67
2022/05/07 05:56:39;;;;;;;5.28;2.50;;;14.20;51.00;;;;;;20995740;28;20078;-67
2022/05/07 06:06:41;;;;;;;2.85;2.10;;;14.30;50.70;;;;;;20994664;28;20163;-66
2022/05/07 06:16:43;;;;;;;4.45;2.53;;;14.20;50.90;;;;;;20994833;28;20094;-66
2022/05/07 06:37:05;;;;;;;4.32;2.95;;;14.40;51.10;;;;;;21011033;28;20079;-67
2022/05/07 06:47:08;;;;;;;4.85;2.60;;;14.90;49.60;;;;;;21010282;28;20052;-66
2022/05/07 06:57:10;;;;;;;5.50;2.67;;;15.50;47.70;;;;;;21008339;28;20048;-66
2022/05/07 07:07:12;;;;;;;4.30;2.40;;;;;;;;;;21008955;28;20174;-67
2022/05/07 07:17:16;;;;;;;3.47;2.00;;;;;;;;;;21006901;28;20088;-67
2022/05/07 07:27:17;;;;;;;4.80;1.75;;;;;;;;;;21006276;28;20055;-65
2022/05/07 07:37:20;;;;;;;3.05;2.20;;;;;;;;;;20986078;28;20052;-65
2022/05/07 07:57:42;;;;;;;3.25;2.20;;;;;;;;;;21003316;28;20496;-68
2022/05/07 08:18:05;;;;;;;5.97;2.25;;;;;;;;;;21001264;28;20049;-66
2022/05/07 08:28:07;;;;;;;2.83;1.83;;;;;;;;;;21001986;28;20181;-67
2022/05/07 08:38:08;;;;;;;3.30;2.28;;;;;;;;;;21000761;28;20481;-65
2022/05/07 08:48:10;;;;;;;3.75;2.00;;;;;;;;;;21000022;28;20066;-67
2022/05/07 08:58:12;;;;;;;3.97;2.00;;;;;;;;;;20998236;28;20132;-67
2022/05/07 09:08:15;;;;;;;2.95;1.70;;;;;;;;;;20997096;28;20053;-65
2022/05/07 09:18:18;;;;;;;2.95;1.70;;;;;;;;;;20997323;28;20361;-67
2022/05/07 09:28:26;;;;;;;3.47;1.80;;;;;;;;;;20996326;28;20119;-68
2022/05/07 09:38:29;;;;;;;3.95;1.50;;;;;;;;;;20996937;28;20413;-67
2022/05/07 09:48:31;;;;;;;3.73;1.53;;;;;;;;;;20995524;28;20512;-66
2022/05/07 09:58:33;;;;;;;3.17;1.30;;;;;;;;;;20996090;28;20412;-63
2022/05/07 10:08:53;;;;;;;5.00;1.70;;;;;;;;;;21011193;28;20074;-59
2022/05/07 10:18:55;;;;;;;3.15;1.58;;;;;;;;;;21010548;28;20531;-62
2022/05/07 10:28:58;;;;;;;5.45;1.50;;;;;;;;;;20968492;28;20409;-65
2022/05/07 10:39:06;;;;;;;5.37;1.90;;;;;;;;;;20971473;28;20202;-61
2022/05/07 10:49:09;;;;;;;4.47;1.70;;;;;;;;;;20990351;28;20040;-68
2022/05/07 10:59:11;;;;;;;4.23;2.00;;;;;;;;;;20973880;28;20049;-62
2022/05/07 11:09:23;;;;;;;2.85;1.67;;;20.70;35.30;;;;;;20924033;28;20057;-60
2022/05/07 11:19:26;;;;;;;3.17;1.40;;;20.70;34.90;;;;;;20924503;28;20049;-60
2022/05/07 11:29:29;;;;;;;11.60;6.60;;;20.80;34.70;;;;;;20924172;28;20051;-59
2022/05/07 11:39:30;;;;;;;5.07;2.40;;;21.00;34.20;;;;;;20924921;28;20139;-58
2022/05/07 11:49:34;;;;;;;5.88;3.80;;;21.20;34.10;;;;;;20924885;28;20044;-61
2022/05/07 11:59:43;;;;;;;15.60;11.60;;;21.40;33.80;;;;;;20949570;28;20097;-59
2022/05/07 12:09:45;;;;;;;5.82;2.95;;;21.60;33.70;;;;;;21001834;28;20063;-63
2022/05/07 12:19:47;;;;;;;4.88;2.67;;;21.70;32.80;;;;;;21001639;28;20056;-72
2022/05/07 12:29:49;;;;;;;3.10;1.20;;;21.90;31.20;;;;;;21000617;28;20132;-69
2022/05/07 12:39:51;;;;;;;3.15;1.60;;;22.00;28.20;;;;;;21000223;28;20056;-67
2022/05/07 12:49:53;;;;;;;7.85;3.85;;;22.10;28.70;;;;;;20998409;28;20045;-71
2022/05/07 12:59:55;;;;;;;2.65;1.30;;;22.40;28.30;;;;;;20997943;28;20489;-65
2022/05/07 13:09:57;;;;;;;1.88;1.42;;;22.40;28.60;;;;;;21000794;28;20057;-69
2022/05/07 13:19:58;;;;;;;5.13;2.08;;;22.60;27.70;;;;;;21004891;28;20075;-64
2022/05/07 13:29:59;;;;;;;4.53;1.90;;;22.60;27.50;;;;;;20996424;28;20044;-65
2022/05/07 13:40:01;;;;;;;3.83;1.20;;;22.80;27.80;;;;;;20996973;28;20056;-65
2022/05/07 13:50:05;;;;;;;5.65;2.70;;;22.90;27.80;;;;;;20994915;28;20063;-63
2022/05/07 14:00:08;;;;;;;2.47;1.50;;;23.10;27.90;;;;;;20998419;28;20060;-64
2022/05/07 14:10:10;;;;;;;3.85;1.80;;;23.10;28.10;;;;;;20998193;28;20052;-69
2022/05/07 14:20:12;;;;;;;2.37;1.40;;;23.20;29.00;;;;;;20995168;28;20135;-66
2022/05/07 14:30:14;;;;;;;3.20;1.60;;;23.20;29.00;;;;;;20996824;28;20412;-72
2022/05/07 14:40:33;;;;;;;3.72;2.08;;;23.30;29.50;;;;;;20993509;28;20053;-69
2022/05/07 14:50:35;;;;;;;3.10;1.52;;;23.40;29.10;;;;;;21003212;28;20045;-72
2022/05/07 15:00:36;;;;;;;2.80;1.65;;;23.60;29.70;;;;;;21007144;28;20048;-68
2022/05/07 15:10:38;;;;;;;2.37;1.50;;;23.50;29.60;;;;;;20989020;28;20056;-65
2022/05/07 15:20:40;;;;;;;5.32;2.25;;;23.60;29.50;;;;;;21006219;28;20064;-66
2022/05/07 15:30:41;;;;;;;2.70;1.43;;;23.50;29.40;;;;;;21006040;28;20044;-65
2022/05/07 15:40:43;;;;;;;2.53;1.60;;;23.70;29.50;;;;;;21004765;28;20049;-63
2022/05/07 15:50:44;;;;;;;2.85;1.90;;;23.70;29.80;;;;;;21004054;28;20372;-64
2022/05/07 16:00:46;;;;;;;3.43;1.13;;;23.90;29.50;;;;;;21001997;28;20048;-64
2022/05/07 16:10:48;;;;;;;3.63;1.40;;;23.80;29.30;;;;;;21001860;28;20055;-64
2022/05/07 16:20:49;;;;;;;3.37;1.80;;;23.90;29.20;;;;;;20983632;28;20052;-74
2022/05/07 16:30:53;;;;;;;3.17;2.22;;;23.90;29.70;;;;;;21001375;28;20051;-64
2022/05/07 16:40:55;;;;;;;2.10;1.20;;;23.90;29.80;;;;;;20998674;28;20052;-73
2022/05/07 16:50:57;;;;;;;3.60;1.30;;;24.00;29.80;;;;;;20997613;28;20401;-64
2022/05/07 17:00:59;;;;;;;4.90;1.93;;;24.00;29.80;;;;;;20997776;28;20105;-77
2022/05/07 17:11:00;;;;;;;1.93;1.40;;;23.90;30.50;;;;;;20997081;28;20059;-74
2022/05/07 17:21:03;;;;;;;6.35;1.90;;;24.00;29.80;;;;;;20997432;28;20639;-71
2022/05/07 17:31:04;;;;;;;4.40;1.88;;;24.00;30.10;;;;;;20996022;28;20051;-72
2022/05/07 17:41:06;;;;;;;3.58;1.52;;;24.00;30.70;;;;;;20995659;28;20103;-72
2022/05/07 17:51:07;;;;;;;2.63;1.50;;;23.90;30.60;;;;;;21000978;28;20405;-72
2022/05/07 18:01:09;;;;;;;2.90;1.77;;;23.90;31.00;;;;;;20995456;28;20056;-74
2022/05/07 18:11:10;;;;;;;3.33;1.93;;;23.70;31.00;;;;;;20995469;28;20519;-74
2022/05/07 18:21:12;;;;;;;2.40;1.48;;;23.60;31.50;;;;;;20998522;28;20492;-64
2022/05/07 18:31:13;;;;;;;2.50;1.50;;;23.40;31.80;;;;;;21008718;28;20125;-63
2022/05/07 18:51:36;;;;;;;4.93;2.30;;;23.20;32.00;;;;;;20993400;28;20453;-67
2022/05/07 19:01:37;;;;;;;4.67;2.00;;;23.00;32.20;;;;;;21008234;28;20060;-66
2022/05/07 19:11:41;;;;;;;4.78;2.55;;;22.90;32.20;;;;;;21006301;28;20496;-63
2022/05/07 19:21:42;;;;;;;4.32;2.92;;;22.80;32.80;;;;;;21006922;28;20063;-64
2022/05/07 19:31:44;;;;;;;5.75;3.03;;;22.70;33.40;;;;;;21005498;28;20094;-71
2022/05/07 19:41:48;;;;;;;7.25;4.43;;;22.50;33.30;;;;;;20986614;28;20055;-68
2022/05/07 19:51:49;;;;;;;11.63;5.20;;;22.40;34.30;;;;;;21005073;28;20113;-73
2022/05/07 20:01:51;;;;;;;10.60;6.40;;;22.40;34.60;;;;;;20985332;28;20136;-75
2022/05/07 20:11:54;;;;;;;8.63;5.77;;;22.20;35.40;;;;;;21002147;28;20055;-68
2022/05/07 20:21:56;;;;;;;31.57;23.57;;;22.10;35.90;;;;;;21002888;28;20401;-64
2022/05/07 20:31:58;;;;;;;7.78;3.78;;;21.90;36.30;;;;;;21001789;28;20044;-64
2022/05/07 20:42:00;;;;;;;6.97;3.63;;;21.50;36.90;;;;;;20999809;28;20055;-77
2022/05/07 20:52:02;;;;;;;6.10;3.65;;;21.40;37.40;;;;;;20981698;28;20052;-64
2022/05/07 21:02:05;;;;;;;8.70;3.60;;;21.50;37.30;;;;;;20998680;28;20040;-76
2022/05/07 21:12:06;;;;;;;9.67;4.90;;;21.30;37.80;;;;;;20998213;28;20045;-72
2022/05/07 21:22:09;;;;;;;8.35;4.35;;;21.20;38.10;;;;;;20998763;28;20476;-74
2022/05/07 21:32:11;;;;;;;10.20;6.43;;;21.30;38.30;;;;;;20997347;28;20040;-64
2022/05/07 21:42:12;;;;;;;10.13;5.55;;;21.20;39.40;;;;;;20995696;28;20060;-74
2022/05/07 21:52:13;;;;;;;9.07;5.10;;;20.80;40.80;;;;;;20996089;28;20455;-71
2022/05/07 22:02:15;;;;;;;10.07;5.60;;;20.70;41.20;;;;;;20994662;28;20094;-70
2022/05/07 22:12:16;;;;;;;7.53;3.42;;;20.70;41.30;;;;;;20995607;28;20091;-70
2022/05/07 22:22:17;;;;;;;4.95;2.00;;;20.70;38.10;;;;;;20994988;28;20044;-70
2022/05/07 22:32:19;;;;;;;4.45;1.98;;;20.70;35.30;;;;;;20995343;28;20048;-65
2022/05/07 22:42:20;;;;;;;2.88;1.60;;;20.60;35.00;;;;;;20994354;28;20424;-76
2022/05/07 22:52:22;;;;;;;4.07;1.77;;;20.40;35.30;;;;;;20994314;28;20049;-71
2022/05/07 23:02:24;;;;;;;4.00;1.88;;;20.30;35.80;;;;;;20993609;28;20512;-65
2022/05/07 23:12:25;;;;;;;2.97;1.60;;;20.10;36.50;;;;;;21004542;28;20059;-66
2022/05/07 23:22:27;;;;;;;3.13;1.83;;;20.00;36.90;;;;;;21006425;28;20063;-68
2022/05/07 23:32:29;;;;;;;4.22;1.48;;;19.80;37.10;;;;;;21006580;28;20040;-64
2022/05/07 23:42:30;;;;;;;5.18;2.05;;;19.70;37.50;;;;;;21004936;28;20044;-68
2022/05/07 23:52:33;;;;;;;3.47;1.58;;;19.50;37.40;;;;;;21005290;28;20094;-65
